Time;durP1;ratioP1;P1;durP2;ratioP2;P2;SDS_P1;SDS_P2;PMS_P1;PMS_P2;Temp;Humidity;BMP_temperature;BMP_pressure;BME280_temperature;BME280_humidity;BME280_pressure;Samples;Min_cycle;Max_cycle;Signal;HPM_P1;HPM_P2
2021/04/01 00:01:45;;;;;;;;;;;19.20;52.90;;;;;;4363204;32;20038;-73
2021/04/01 00:04:17;;;;;;;;;;;19.20;53.00;;;;;;4362442;32;43659;-73
2021/04/01 00:06:44;;;;;;;;;;;19.20;53.00;;;;;;4363675;32;20023;-73
2021/04/01 00:09:11;;;;;;;;;;;19.20;53.00;;;;;;4363133;32;20420;-73
2021/04/01 00:11:37;;;;;;;;;;;19.20;53.00;;;;;;4363656;32;20349;-73
2021/04/01 00:14:10;;;;;;;;;;;19.20;53.00;;;;;;4348709;32;40625;-73
2021/04/01 00:16:40;;;;;;;;;;;19.10;52.90;;;;;;4337164;32;19997;-73
2021/04/01 00:19:06;;;;;;;;;;;19.10;53.00;;;;;;4363460;32;20005;-73
2021/04/01 00:21:38;;;;;;;;;;;19.10;53.10;;;;;;4350276;32;20064;-73
2021/04/01 00:24:05;;;;;;;;;;;19.10;53.00;;;;;;4337262;32;20494;-73
2021/04/01 00:26:35;;;;;;;;;;;19.10;53.10;;;;;;4349766;32;20001;-73
2021/04/01 00:29:02;;;;;;;;;;;19.00;53.10;;;;;;4362879;32;20009;-73
2021/04/01 00:31:29;;;;;;;;;;;19.00;53.20;;;;;;4363392;32;20064;-73
2021/04/01 00:33:56;;;;;;;;;;;19.00;53.30;;;;;;4349837;32;20070;-73
2021/04/01 00:36:26;;;;;;;;;;;19.00;53.30;;;;;;4337651;32;20567;-73
2021/04/01 00:38:52;;;;;;;;;;;18.90;53.30;;;;;;4336363;32;38436;-74
2021/04/01 00:41:19;;;;;;;;;;;18.90;53.30;;;;;;4336096;32;39924;-73
2021/04/01 00:43:54;;;;;;;;;;;18.90;53.30;;;;;;4363281;32;20021;-73
2021/04/01 00:46:24;;;;;;;;;;;18.90;53.30;;;;;;4363087;32;20019;-73
2021/04/01 00:48:51;;;;;;;;;;;18.90;53.40;;;;;;4362955;32;20005;-73
2021/04/01 00:51:17;;;;;;;;;;;18.80;53.30;;;;;;4348406;32;29530;-73
2021/04/01 00:53:44;;;;;;;;;;;18.80;53.30;;;;;;4361659;32;35736;-73
2021/04/01 00:56:14;;;;;;;;;;;18.80;53.30;;;;;;4349052;32;20020;-73
2021/04/01 00:58:41;;;;;;;;;;;18.80;53.40;;;;;;4348353;32;37740;-73
2021/04/01 01:01:23;;;;;;;;;;;18.80;53.50;;;;;;4348200;32;31736;-73
2021/04/01 01:03:56;;;;;;;;;;;18.80;53.60;;;;;;4349608;32;20398;-73
2021/04/01 01:06:22;;;;;;;;;;;18.70;53.60;;;;;;4361568;32;35863;-73
2021/04/01 01:08:49;;;;;;;;;;;18.70;53.60;;;;;;4361220;32;38600;-73
2021/04/01 01:11:21;;;;;;;;;;;18.70;53.60;;;;;;4335436;32;42709;-73
2021/04/01 01:13:50;;;;;;;;;;;18.70;53.60;;;;;;4348017;32;38232;-73
2021/04/01 01:16:17;;;;;;;;;;;18.70;53.70;;;;;;4348675;32;25022;-73
2021/04/01 01:18:44;;;;;;;;;;;18.70;53.80;;;;;;4361707;32;25650;-73
2021/04/01 01:21:14;;;;;;;;;;;18.70;53.80;;;;;;4361223;32;43346;-73
2021/04/01 01:23:40;;;;;;;;;;;18.60;53.80;;;;;;4361287;32;37173;-73
2021/04/01 01:26:07;;;;;;;;;;;18.60;53.90;;;;;;4348186;32;35098;-73
2021/04/01 01:28:40;;;;;;;;;;;18.60;54.00;;;;;;4347463;32;38928;-73
2021/04/01 01:31:10;;;;;;;;;;;18.50;54.00;;;;;;4360943;32;37912;-73
2021/04/01 01:33:41;;;;;;;;;;;18.50;54.10;;;;;;4360908;32;43812;-73
2021/04/01 01:36:13;;;;;;;;;;;18.50;54.20;;;;;;4347801;32;40012;-73
2021/04/01 01:38:43;;;;;;;;;;;18.50;54.30;;;;;;4347825;32;44634;-73
2021/04/01 01:41:10;;;;;;;;;;;18.50;54.50;;;;;;4347047;32;46794;-73
2021/04/01 01:43:36;;;;;;;;;;;18.50;54.60;;;;;;4361455;32;32616;-73
2021/04/01 01:46:03;;;;;;;;;;;18.50;54.60;;;;;;4361438;32;33420;-73
2021/04/01 01:48:33;;;;;;;;;;;18.50;54.70;;;;;;4361311;32;32366;-73
2021/04/01 01:51:02;;;;;;;;;;;18.40;54.70;;;;;;4348282;32;26392;-73
2021/04/01 01:53:31;;;;;;;;;;;18.40;55.00;;;;;;4347427;32;43963;-73
2021/04/01 01:55:58;;;;;;;;;;;18.40;55.00;;;;;;4347290;32;39754;-73
2021/04/01 01:58:28;;;;;;;;;;;18.40;54.90;;;;;;4347382;32;30796;-73
2021/04/01 02:00:56;;;;;;;;;;;18.40;55.00;;;;;;4371866;32;35543;-73
2021/04/01 02:03:24;;;;;;;;;;;18.30;55.10;;;;;;4360512;32;44322;-73
2021/04/01 02:05:51;;;;;;;;;;;18.40;55.30;;;;;;4360113;32;44125;-73
2021/04/01 02:08:24;;;;;;;;;;;18.30;55.30;;;;;;4347489;32;37793;-73
2021/04/01 02:10:54;;;;;;;;;;;18.30;55.40;;;;;;4360828;32;38442;-73
2021/04/01 02:13:25;;;;;;;;;;;18.30;55.40;;;;;;4361635;32;20405;-73
2021/04/01 02:15:56;;;;;;;;;;;18.30;55.40;;;;;;4360355;32;43243;-73
2021/04/01 02:18:27;;;;;;;;;;;18.30;55.50;;;;;;4361593;32;20023;-73
2021/04/01 02:20:56;;;;;;;;;;;18.30;55.60;;;;;;4361886;32;20013;-73
2021/04/01 02:23:41;;;;;;;;;;;18.30;55.60;;;;;;4360765;32;35341;-73
2021/04/01 02:26:07;;;;;;;;;;;18.20;55.60;;;;;;4361650;32;20013;-73
2021/04/01 02:28:35;;;;;;;;;;;18.20;55.70;;;;;;4361361;32;20013;-73
2021/04/01 02:31:09;;;;;;;;;;;18.20;55.60;;;;;;4348137;32;20374;-73
2021/04/01 02:33:41;;;;;;;;;;;18.20;55.60;;;;;;4348190;32;20512;-73
2021/04/01 02:36:08;;;;;;;;;;;18.20;55.70;;;;;;4361588;32;20019;-73
2021/04/01 02:38:40;;;;;;;;;;;18.20;56.30;;;;;;4361150;32;20042;-73
2021/04/01 02:41:07;;;;;;;;;;;18.10;55.70;;;;;;4361282;32;20023;-73
2021/04/01 02:43:37;;;;;;;;;;;18.10;55.80;;;;;;4372502;32;20013;-73
2021/04/01 02:46:06;;;;;;;;;;;18.10;55.80;;;;;;4361153;32;20005;-73
2021/04/01 02:48:33;;;;;;;;;;;18.10;55.90;;;;;;4361199;32;20417;-73
2021/04/01 02:51:02;;;;;;;;;;;18.10;56.60;;;;;;4360787;32;20013;-73
2021/04/01 02:53:34;;;;;;;;;;;18.10;56.00;;;;;;4361472;32;20001;-73
2021/04/01 02:56:12;;;;;;;;;;;18.10;56.00;;;;;;4347695;33;19997;-73
2021/04/01 02:58:39;;;;;;;;;;;18.00;56.10;;;;;;4348125;33;20391;-73
2021/04/01 03:01:08;;;;;;;;;;;18.00;56.00;;;;;;4361590;33;20019;-73
2021/04/01 03:03:41;;;;;;;;;;;18.00;56.60;;;;;;4361176;33;20357;-73
2021/04/01 03:06:08;;;;;;;;;;;18.00;56.20;;;;;;4361350;33;20385;-73
2021/04/01 03:08:35;;;;;;;;;;;18.00;56.20;;;;;;4361434;33;20069;-73
2021/04/01 03:11:07;;;;;;;;;;;17.90;56.10;;;;;;4360839;33;20012;-73
2021/04/01 03:13:40;;;;;;;;;;;17.90;56.30;;;;;;4361495;33;20117;-73
2021/04/01 03:16:07;;;;;;;;;;;17.90;56.30;;;;;;4361415;33;20406;-73
2021/04/01 03:18:34;;;;;;;;;;;17.90;56.20;;;;;;4362444;32;20023;-73
2021/04/01 03:21:09;;;;;;;;;;;17.90;56.40;;;;;;4363879;32;20013;-73
2021/04/01 03:23:42;;;;;;;;;;;17.90;56.30;;;;;;4364260;32;20439;-73
2021/04/01 03:26:16;;;;;;;;;;;17.90;56.40;;;;;;4364312;32;20036;-73
2021/04/01 03:28:43;;;;;;;;;;;17.80;56.40;;;;;;4364120;32;20019;-73
2021/04/01 03:31:12;;;;;;;;;;;17.80;56.50;;;;;;4357664;32;19996;-73
2021/04/01 03:33:42;;;;;;;;;;;17.80;56.50;;;;;;4363700;32;20440;-73
2021/04/01 03:36:11;;;;;;;;;;;17.80;56.60;;;;;;4364293;32;20410;-73
2021/04/01 03:38:44;;;;;;;;;;;17.80;56.70;;;;;;4364129;32;20009;-73
2021/04/01 03:41:14;;;;;;;;;;;17.80;56.80;;;;;;4369328;32;20087;-73
2021/04/01 03:43:47;;;;;;;;;;;17.70;56.80;;;;;;4363881;32;20027;-73
2021/04/01 03:46:21;;;;;;;;;;;17.80;56.90;;;;;;4364111;32;20015;-73
2021/04/01 03:48:51;;;;;;;;;;;17.70;56.90;;;;;;4364021;32;20088;-73
2021/04/01 03:51:23;;;;;;;;;;;17.80;57.00;;;;;;4350333;32;20024;-73
2021/04/01 03:53:53;;;;;;;;;;;17.70;57.00;;;;;;4349109;32;39257;-73
2021/04/01 03:56:20;;;;;;;;;;;17.80;56.90;;;;;;4362509;32;44821;-73
2021/04/01 03:59:11;;;;;;;;;;;17.70;56.80;;;;;;4363780;32;20015;-73
2021/04/01 04:15:14;;;;;;;;;;;17.50;57.20;;;;;;4362304;32;44721;-73
2021/04/01 04:17:46;;;;;;;;;;;17.50;57.30;;;;;;4362201;32;43391;-73
2021/04/01 04:20:13;;;;;;;;;;;17.40;57.40;;;;;;4362433;32;40289;-73
2021/04/01 04:22:41;;;;;;;;;;;17.40;57.60;;;;;;4362107;32;31297;-73
2021/04/01 04:25:09;;;;;;;;;;;17.30;57.70;;;;;;4362073;32;39157;-73
2021/04/01 04:30:25;;;;;;;;;;;17.30;57.90;;;;;;4362777;32;20410;-73
2021/04/01 04:32:52;;;;;;;;;;;17.30;57.90;;;;;;4362373;32;41482;-73
2021/04/01 04:35:19;;;;;;;;;;;17.20;57.90;;;;;;4362395;32;30632;-73
2021/04/01 04:37:46;;;;;;;;;;;17.20;58.00;;;;;;4348445;32;39302;-73
2021/04/01 04:40:13;;;;;;;;;;;17.20;58.00;;;;;;4362030;32;36123;-73
2021/04/01 04:42:40;;;;;;;;;;;17.20;58.00;;;;;;4347950;32;42914;-73
2021/04/01 04:45:07;;;;;;;;;;;17.10;58.10;;;;;;4361857;32;43364;-73
2021/04/01 04:47:34;;;;;;;;;;;17.10;58.20;;;;;;4361879;32;45023;-73
2021/04/01 04:50:02;;;;;;;;;;;17.10;58.20;;;;;;4348202;32;43365;-73
2021/04/01 04:52:32;;;;;;;;;;;17.10;58.10;;;;;;4361597;32;43639;-73
2021/04/01 04:55:01;;;;;;;;;;;17.20;58.20;;;;;;4348673;32;23044;-73
2021/04/01 04:57:37;;;;;;;;;;;17.20;58.10;;;;;;4368316;32;43742;-73
2021/04/01 05:00:45;;;;;;;;;;;17.10;58.10;;;;;;4361952;32;43675;-73
2021/04/01 05:05:39;;;;;;;;;;;17.00;58.20;;;;;;4347675;32;45043;-73
2021/04/01 05:08:08;;;;;;;;;;;17.00;58.20;;;;;;4362691;32;20048;-73
2021/04/01 05:10:38;;;;;;;;;;;17.00;58.20;;;;;;4347732;32;45006;-73
2021/04/01 05:13:11;;;;;;;;;;;17.00;58.20;;;;;;4361523;32;43413;-73
2021/04/01 05:15:46;;;;;;;;;;;17.00;58.20;;;;;;4361633;32;41255;-73
2021/04/01 05:20:44;;;;;;;;;;;17.00;58.20;;;;;;4361556;32;36270;-73
2021/04/01 05:25:45;;;;;;;;;;;17.00;58.20;;;;;;4347604;32;45325;-73
2021/04/01 05:28:34;;;;;;;;;;;16.90;58.20;;;;;;4361450;32;39688;-73
2021/04/01 05:31:11;;;;;;;;;;;16.90;58.30;;;;;;4361503;32;34432;-73
2021/04/01 05:33:41;;;;;;;;;;;16.90;58.40;;;;;;4348465;32;21290;-73
2021/04/01 05:36:39;;;;;;;;;;;16.90;58.20;;;;;;4361184;32;33516;-73
2021/04/01 05:39:16;;;;;;;;;;;16.90;58.30;;;;;;4372871;32;20013;-73
2021/04/01 05:41:44;;;;;;;;;;;16.90;58.40;;;;;;4361591;32;19996;-73
2021/04/01 05:58:12;;;;;;;;;;;16.80;58.60;;;;;;4345317;32;21064;-73
2021/04/01 06:03:42;;;;;;;;;;;16.80;58.60;;;;;;4361373;32;20016;-73
2021/04/01 06:06:15;;;;;;;;;;;16.80;58.60;;;;;;4348513;32;20047;-73
2021/04/01 06:08:47;;;;;;;;;;;16.80;58.50;;;;;;4335997;32;20443;-73
2021/04/01 06:11:18;;;;;;;;;;;16.80;58.50;;;;;;4336390;32;20005;-73
2021/04/01 06:14:08;;;;;;;;;;;16.80;58.60;;;;;;4349102;32;20067;-73
2021/04/01 06:16:45;;;;;;;;;;;16.80;58.60;;;;;;4336216;32;20005;-73
2021/04/01 06:19:26;;;;;;;;;;;16.80;58.60;;;;;;4348030;32;20410;-73
2021/04/01 06:21:53;;;;;;;;;;;16.70;58.60;;;;;;4348079;32;20024;-73
2021/04/01 06:24:25;;;;;;;;;;;16.70;58.90;;;;;;4361315;32;20056;-73
2021/04/01 06:27:23;;;;;;;;;;;16.80;58.70;;;;;;4361058;32;26413;-73
2021/04/01 06:30:20;;;;;;;;;;;16.80;58.70;;;;;;4359774;32;44466;-73
2021/04/01 06:33:12;;;;;;;;;;;16.70;58.80;;;;;;4336024;32;20001;-73
2021/04/01 06:36:07;;;;;;;;;;;16.70;58.80;;;;;;4360431;32;44458;-73
2021/04/01 06:38:38;;;;;;;;;;;16.80;58.80;;;;;;4361253;32;20599;-73
2021/04/01 06:41:09;;;;;;;;;;;16.80;58.80;;;;;;4360246;32;40618;-73
2021/04/01 06:43:41;;;;;;;;;;;16.80;58.80;;;;;;4360152;32;42822;-73
2021/04/01 06:46:08;;;;;;;;;;;16.80;58.80;;;;;;4359840;32;43392;-73
2021/04/01 06:51:29;;;;;;;;;;;16.70;59.00;;;;;;4359825;32;42503;-73
2021/04/01 06:54:05;;;;;;;;;;;16.70;59.10;;;;;;4347552;32;20013;-73
2021/04/01 06:57:07;;;;;;;;;;;16.60;59.20;;;;;;4350664;33;20016;-73
2021/04/01 07:02:28;;;;;;;;;;;16.60;59.40;;;;;;4359925;33;39735;-73
2021/04/01 07:05:00;;;;;;;;;;;16.60;59.50;;;;;;4346192;33;43922;-73
2021/04/01 07:07:28;;;;;;;;;;;16.60;59.50;;;;;;4359753;33;42439;-73
2021/04/01 07:12:47;;;;;;;;;;;16.60;59.60;;;;;;4360020;33;43322;-73
2021/04/01 07:15:24;;;;;;;;;;;16.70;59.60;;;;;;4359547;33;43635;-73
2021/04/01 07:17:57;;;;;;;;;;;16.70;59.60;;;;;;4360377;33;43701;-73
2021/04/01 07:47:16;;;;;;;;;;;16.90;61.00;;;;;;4347595;33;20001;-73
2021/04/01 07:49:45;;;;;;;;;;;17.00;61.00;;;;;;4347001;33;21008;-72
2021/04/01 07:52:17;;;;;;;;;;;17.00;61.10;;;;;;4346600;33;34124;-73
2021/04/01 08:05:28;;;;;;;;;;;17.00;61.60;;;;;;4361465;32;43568;-73
2021/04/01 08:08:05;;;;;;;;;;;17.00;61.60;;;;;;4349285;32;33940;-73
2021/04/01 08:10:35;;;;;;;;;;;17.00;61.60;;;;;;4362476;32;44606;-73
2021/04/01 08:13:10;;;;;;;;;;;17.00;61.90;;;;;;4349074;32;45011;-73
2021/04/01 08:15:43;;;;;;;;;;;17.00;61.70;;;;;;4362532;32;38294;-73
2021/04/01 08:20:45;;;;;;;;;;;17.00;61.90;;;;;;4348332;32;44608;-73
2021/04/01 08:23:33;;;;;;;;;;;17.00;61.90;;;;;;4362944;32;20040;-73
2021/04/01 08:26:37;;;;;;;;;;;17.00;62.70;;;;;;4363172;32;20023;-73
2021/04/01 08:30:11;;;;;;;;;;;17.00;62.10;;;;;;4349879;32;20474;-73
2021/04/01 08:35:35;;;;;;;;;;;17.00;62.00;;;;;;4363170;32;20023;-73
2021/04/01 08:38:21;;;;;;;;;;;17.00;62.00;;;;;;4361922;32;45781;-73
2021/04/01 08:41:24;;;;;;;;;;;17.00;62.30;;;;;;4361971;32;36110;-73
2021/04/01 08:44:35;;;;;;;;;;;17.00;62.60;;;;;;4363118;32;20021;-73
2021/04/01 08:47:17;;;;;;;;;;;17.00;62.80;;;;;;4348913;32;20353;-73
2021/04/01 08:49:58;;;;;;;;;;;17.10;62.70;;;;;;4362705;32;20127;-73
2021/04/01 08:52:36;;;;;;;;;;;17.00;62.70;;;;;;4362871;32;20074;-73
2021/04/01 08:55:05;;;;;;;;;;;17.00;62.70;;;;;;4362896;32;20017;-73
2021/04/01 08:57:35;;;;;;;;;;;17.10;63.00;;;;;;4348340;32;27576;-73
2021/04/01 09:00:08;;;;;;;;;;;17.10;63.20;;;;;;4362404;32;20251;-73
2021/04/01 09:02:35;;;;;;;;;;;17.10;63.10;;;;;;4362025;32;23183;-73
2021/04/01 09:05:09;;;;;;;;;;;17.10;63.50;;;;;;4361701;32;28758;-73
2021/04/01 09:08:00;;;;;;;;;;;17.10;63.70;;;;;;4361488;32;20000;-73
2021/04/01 09:10:33;;;;;;;;;;;17.20;63.50;;;;;;4341833;32;20039;-73
2021/04/01 09:18:28;;;;;;;;;;;17.20;63.00;;;;;;4373263;32;20445;-73
2021/04/01 09:20:56;;;;;;;;;;;17.30;63.00;;;;;;4348258;32;26092;-73
2021/04/01 09:23:34;;;;;;;;;;;17.30;62.90;;;;;;4362213;32;20078;-73
2021/04/01 09:26:08;;;;;;;;;;;17.30;62.70;;;;;;4362449;32;20215;-73
2021/04/01 09:28:37;;;;;;;;;;;17.30;62.60;;;;;;4348769;32;20020;-73
2021/04/01 09:31:06;;;;;;;;;;;17.40;62.60;;;;;;4361501;32;20013;-73
2021/04/01 09:33:33;;;;;;;;;;;17.40;62.60;;;;;;4361794;32;23398;-73
2021/04/01 09:36:07;;;;;;;;;;;17.40;62.60;;;;;;4349016;32;20013;-73
2021/04/01 09:38:40;;;;;;;;;;;17.40;62.40;;;;;;4362416;32;20023;-73
2021/04/01 09:41:07;;;;;;;;;;;17.40;62.30;;;;;;4348172;32;20273;-73
2021/04/01 09:43:34;;;;;;;;;;;17.40;62.10;;;;;;4347881;32;20024;-73
2021/04/01 09:46:08;;;;;;;;;;;17.40;61.90;;;;;;4362057;32;20013;-73
2021/04/01 09:48:39;;;;;;;;;;;17.40;61.80;;;;;;4361709;32;23722;-73
2021/04/01 09:51:15;;;;;;;;;;;17.50;61.80;;;;;;4347055;32;44423;-73
2021/04/01 09:53:48;;;;;;;;;;;17.50;61.80;;;;;;4335637;32;22822;-73
2021/04/01 09:56:26;;;;;;;;;;;17.50;61.80;;;;;;4362072;32;20008;-73
2021/04/01 09:58:53;;;;;;;;;;;17.50;61.70;;;;;;4348877;32;20349;-73
2021/04/01 10:01:30;;;;;;;;;;;17.50;61.70;;;;;;4361383;32;20296;-73
2021/04/01 10:04:07;;;;;;;;;;;17.60;61.70;;;;;;4371960;32;42113;-73
2021/04/01 10:06:46;;;;;;;;;;;17.60;61.80;;;;;;4360914;32;40868;-73
2021/04/01 10:09:13;;;;;;;;;;;17.60;61.80;;;;;;4347440;32;45188;-73
2021/04/01 10:11:48;;;;;;;;;;;17.60;61.60;;;;;;4360352;32;43648;-73
2021/04/01 10:14:15;;;;;;;;;;;17.60;61.60;;;;;;4360468;32;43050;-73
2021/04/01 10:16:57;;;;;;;;;;;17.60;61.70;;;;;;4360416;32;43366;-73
2021/04/01 10:19:30;;;;;;;;;;;17.70;61.70;;;;;;4347430;32;22575;-73
2021/04/01 10:21:57;;;;;;;;;;;17.70;61.70;;;;;;4348388;32;19990;-73
2021/04/01 10:24:30;;;;;;;;;;;17.80;61.70;;;;;;4361506;32;20023;-73
2021/04/01 10:27:05;;;;;;;;;;;17.70;61.60;;;;;;4335052;32;20001;-73
2021/04/01 10:32:15;;;;;;;;;;;17.80;61.60;;;;;;4361162;32;20037;-73
2021/04/01 10:34:53;;;;;;;;;;;17.80;61.50;;;;;;4348283;32;20451;-73
2021/04/01 10:37:20;;;;;;;;;;;17.80;61.40;;;;;;4361510;32;20015;-73
2021/04/01 10:39:50;;;;;;;;;;;17.90;61.30;;;;;;4361250;32;20399;-73
2021/04/01 10:42:31;;;;;;;;;;;17.90;61.30;;;;;;4361277;32;20026;-73
2021/04/01 10:45:03;;;;;;;;;;;17.90;61.20;;;;;;4360935;32;22795;-73
2021/04/01 10:47:45;;;;;;;;;;;17.90;61.20;;;;;;4360732;32;20440;-73
2021/04/01 10:50:17;;;;;;;;;;;17.90;61.10;;;;;;4347703;32;20039;-73
2021/04/01 10:52:49;;;;;;;;;;;17.90;61.10;;;;;;4347381;32;20389;-73
2021/04/01 10:55:16;;;;;;;;;;;18.00;61.10;;;;;;4361407;32;20023;-73
2021/04/01 10:57:48;;;;;;;;;;;18.00;61.10;;;;;;4361121;32;20009;-73
2021/04/01 11:00:14;;;;;;;;;;;18.00;61.00;;;;;;4335463;33;20007;-73
2021/04/01 11:02:45;;;;;;;;;;;18.00;61.00;;;;;;4371840;32;20019;-73
2021/04/01 11:05:16;;;;;;;;;;;18.00;60.90;;;;;;4361182;33;20011;-73
2021/04/01 11:07:48;;;;;;;;;;;18.10;60.80;;;;;;4361364;33;20005;-73
2021/04/01 11:10:25;;;;;;;;;;;18.10;60.80;;;;;;4361229;33;20373;-73
2021/04/01 11:12:53;;;;;;;;;;;18.10;60.80;;;;;;4347641;33;19993;-73
2021/04/01 11:15:22;;;;;;;;;;;18.10;60.70;;;;;;4359985;33;42958;-73
2021/04/01 11:17:53;;;;;;;;;;;18.20;60.70;;;;;;4359541;33;42421;-73
2021/04/01 11:20:22;;;;;;;;;;;18.20;60.70;;;;;;4360704;33;23533;-73
2021/04/01 11:23:02;;;;;;;;;;;18.20;60.60;;;;;;4360726;33;20013;-73
2021/04/01 11:25:29;;;;;;;;;;;18.20;60.60;;;;;;4360293;33;20016;-73
2021/04/01 11:27:55;;;;;;;;;;;18.30;60.60;;;;;;4360773;33;20273;-73
2021/04/01 11:30:37;;;;;;;;;;;18.30;60.50;;;;;;4360619;33;23264;-73
2021/04/01 11:33:04;;;;;;;;;;;18.30;60.40;;;;;;4360997;33;20460;-73
2021/04/01 11:35:40;;;;;;;;;;;18.30;60.30;;;;;;4360844;33;20072;-73
2021/04/01 11:38:11;;;;;;;;;;;18.40;60.30;;;;;;4347362;32;20012;-75
2021/04/01 11:40:38;;;;;;;;;;;18.40;60.30;;;;;;4349470;32;20015;-73
2021/04/01 11:43:05;;;;;;;;;;;18.40;60.20;;;;;;4350166;32;20017;-73
2021/04/01 11:45:33;;;;;;;;;;;18.50;60.20;;;;;;4337215;32;26586;-73
2021/04/01 11:48:00;;;;;;;;;;;18.50;60.10;;;;;;4350212;32;20016;-73
2021/04/01 11:50:30;;;;;;;;;;;18.50;60.10;;;;;;4363161;32;24047;-73
2021/04/01 11:52:58;;;;;;;;;;;18.60;60.10;;;;;;4350102;32;20023;-73
2021/04/01 11:55:25;;;;;;;;;;;18.60;60.10;;;;;;4349616;32;20001;-73
2021/04/01 11:57:52;;;;;;;;;;;18.60;60.10;;;;;;4349613;32;20001;-73
2021/04/01 12:00:25;;;;;;;;;;;18.60;60.00;;;;;;4349746;32;20389;-73
2021/04/01 12:02:56;;;;;;;;;;;18.70;60.10;;;;;;4362938;32;20051;-73
2021/04/01 12:05:23;;;;;;;;;;;18.70;60.00;;;;;;4350162;32;20016;-73
2021/04/01 12:07:50;;;;;;;;;;;18.70;59.90;;;;;;4363635;32;20004;-73
2021/04/01 12:10:17;;;;;;;;;;;18.70;59.90;;;;;;4363001;32;24571;-73
2021/04/01 12:12:43;;;;;;;;;;;18.70;59.90;;;;;;4363670;32;20019;-73
2021/04/01 12:15:11;;;;;;;;;;;18.80;60.00;;;;;;4362772;32;20027;-73
2021/04/01 12:17:41;;;;;;;;;;;18.80;59.90;;;;;;4349224;32;21805;-73
2021/04/01 12:20:11;;;;;;;;;;;18.90;59.90;;;;;;4349390;32;20072;-73
2021/04/01 12:22:39;;;;;;;;;;;18.90;59.90;;;;;;4363042;32;20068;-73
2021/04/01 12:25:08;;;;;;;;;;;19.00;59.80;;;;;;4363215;32;20485;-73
2021/04/01 12:27:38;;;;;;;;;;;19.00;59.80;;;;;;4362852;32;20021;-73
2021/04/01 12:30:09;;;;;;;;;;;19.00;59.70;;;;;;4362533;32;23650;-73
2021/04/01 12:32:36;;;;;;;;;;;19.10;59.70;;;;;;4350111;32;20013;-73
2021/04/01 12:35:09;;;;;;;;;;;19.10;59.60;;;;;;4363268;32;20458;-73
2021/04/01 12:37:36;;;;;;;;;;;19.10;59.60;;;;;;4363076;32;20016;-73
2021/04/01 12:40:24;;;;;;;;;;;19.20;59.60;;;;;;4361672;32;43368;-73
2021/04/01 12:43:02;;;;;;;;;;;19.20;59.60;;;;;;4362849;32;20020;-73
2021/04/01 12:45:33;;;;;;;;;;;19.20;59.50;;;;;;4362347;32;20079;-73
2021/04/01 12:48:06;;;;;;;;;;;19.30;59.60;;;;;;4363178;32;20044;-73
2021/04/01 12:50:34;;;;;;;;;;;19.30;59.60;;;;;;4337081;32;20020;-73
2021/04/01 12:53:01;;;;;;;;;;;19.30;59.50;;;;;;4362355;32;20005;-73
2021/04/01 12:58:24;;;;;;;;;;;19.40;59.50;;;;;;4362781;32;20056;-73
2021/04/01 13:00:55;;;;;;;;;;;19.40;59.60;;;;;;4349452;32;20019;-73
2021/04/01 13:03:30;;;;;;;;;;;19.50;59.50;;;;;;4348697;32;20009;-73
2021/04/01 13:06:01;;;;;;;;;;;19.50;59.50;;;;;;4349643;32;20013;-73
2021/04/01 13:11:13;;;;;;;;;;;19.60;59.50;;;;;;4362777;32;20017;-73
2021/04/01 13:13:40;;;;;;;;;;;19.60;59.50;;;;;;4361745;32;26257;-73
2021/04/01 13:16:07;;;;;;;;;;;19.70;59.50;;;;;;4348690;32;20023;-73
2021/04/01 13:18:34;;;;;;;;;;;19.70;59.50;;;;;;4362082;32;22998;-73
2021/04/01 13:21:02;;;;;;;;;;;19.70;59.50;;;;;;4362444;32;20016;-73
2021/04/01 13:25:58;;;;;;;;;;;19.80;59.50;;;;;;4347712;32;41620;-73
2021/04/01 13:28:25;;;;;;;;;;;19.80;59.40;;;;;;4347743;32;44282;-73
2021/04/01 13:30:58;;;;;;;;;;;19.90;59.50;;;;;;4361402;32;40869;-73
2021/04/01 13:33:40;;;;;;;;;;;19.90;59.50;;;;;;4361260;32;43664;-73
2021/04/01 13:36:21;;;;;;;;;;;19.90;59.60;;;;;;4348739;32;20023;-73
2021/04/01 13:38:48;;;;;;;;;;;20.00;59.50;;;;;;4362322;32;20000;-73
2021/04/01 13:41:20;;;;;;;;;;;20.00;59.50;;;;;;4360803;32;44183;-73
2021/04/01 13:43:50;;;;;;;;;;;20.10;59.50;;;;;;4347915;32;44354;-74
2021/04/01 13:46:17;;;;;;;;;;;20.10;59.50;;;;;;4360553;32;43676;-74
2021/04/01 13:48:44;;;;;;;;;;;20.20;59.60;;;;;;4360535;32;42997;-74
2021/04/01 13:51:16;;;;;;;;;;;20.20;59.20;;;;;;4347373;32;42756;-73
2021/04/01 13:54:16;;;;;;;;;;;20.20;59.20;;;;;;4361823;32;20022;-74
2021/04/01 13:56:53;;;;;;;;;;;20.30;59.00;;;;;;4373227;32;20004;-74
2021/04/01 13:59:29;;;;;;;;;;;20.30;58.80;;;;;;4362457;32;20436;-75
2021/04/01 14:10:33;;;;;;;;;;;20.40;58.40;;;;;;4349389;32;20088;-75
2021/04/01 14:13:05;;;;;;;;;;;20.50;58.40;;;;;;4361529;32;20028;-75
2021/04/01 14:15:40;;;;;;;;;;;20.50;58.30;;;;;;4361815;32;20094;-75
2021/04/01 14:18:06;;;;;;;;;;;20.50;58.10;;;;;;4348330;32;20020;-75
2021/04/01 14:20:33;;;;;;;;;;;20.50;58.00;;;;;;4361268;32;20009;-74
2021/04/01 14:23:06;;;;;;;;;;;20.60;58.00;;;;;;4360761;32;25474;-74
2021/04/01 14:25:38;;;;;;;;;;;20.60;58.00;;;;;;4360884;32;20004;-74
2021/04/01 14:28:05;;;;;;;;;;;20.60;57.90;;;;;;4361644;32;20386;-75
2021/04/01 14:30:36;;;;;;;;;;;20.70;58.00;;;;;;4361211;32;20420;-75
2021/04/01 14:33:03;;;;;;;;;;;20.70;57.80;;;;;;4373076;32;19996;-75
2021/04/01 14:35:37;;;;;;;;;;;20.70;57.70;;;;;;4348308;32;20007;-74
2021/04/01 14:38:05;;;;;;;;;;;20.70;57.70;;;;;;4348147;32;20391;-74
2021/04/01 14:40:39;;;;;;;;;;;20.80;57.60;;;;;;4361440;32;20005;-74
2021/04/01 14:43:13;;;;;;;;;;;20.90;57.50;;;;;;4348264;32;20031;-74
2021/04/01 14:45:45;;;;;;;;;;;20.90;57.30;;;;;;4361709;32;20001;-74
2021/04/01 14:48:14;;;;;;;;;;;20.90;57.10;;;;;;4361377;32;20011;-74
2021/04/01 14:50:44;;;;;;;;;;;20.90;57.10;;;;;;4360758;32;20361;-74
2021/04/01 14:53:24;;;;;;;;;;;20.90;57.00;;;;;;4348168;32;20013;-74
2021/04/01 14:55:58;;;;;;;;;;;20.90;57.00;;;;;;4348291;32;20028;-74
2021/04/01 14:58:31;;;;;;;;;;;21.00;57.10;;;;;;4360923;32;21253;-74
2021/04/01 15:01:05;;;;;;;;;;;21.00;57.00;;;;;;4360964;33;23571;-75
2021/04/01 15:03:35;;;;;;;;;;;21.00;56.90;;;;;;4347665;33;20005;-75
2021/04/01 15:06:02;;;;;;;;;;;21.00;57.00;;;;;;4360990;33;20083;-75
2021/04/01 15:08:31;;;;;;;;;;;21.10;56.90;;;;;;4360992;33;20064;-74
2021/04/01 15:11:00;;;;;;;;;;;21.10;56.80;;;;;;4347513;33;20382;-75
2021/04/01 15:13:27;;;;;;;;;;;21.10;56.70;;;;;;4361795;32;20023;-74
2021/04/01 15:15:55;;;;;;;;;;;21.10;56.60;;;;;;4364342;32;20019;-74
2021/04/01 15:18:39;;;;;;;;;;;21.10;56.60;;;;;;4350034;32;36028;-74
2021/04/01 15:21:09;;;;;;;;;;;21.10;56.50;;;;;;4363249;32;40461;-74
2021/04/01 15:23:35;;;;;;;;;;;21.10;56.50;;;;;;4373707;32;44533;-74
2021/04/01 15:26:02;;;;;;;;;;;21.10;56.40;;;;;;4349557;32;39658;-74
2021/04/01 15:28:28;;;;;;;;;;;21.10;56.40;;;;;;4363258;32;37457;-75
2021/04/01 15:30:56;;;;;;;;;;;21.10;56.40;;;;;;4362626;32;37779;-74
2021/04/01 15:33:22;;;;;;;;;;;21.20;56.40;;;;;;4362979;32;44748;-74
2021/04/01 15:35:49;;;;;;;;;;;21.20;56.40;;;;;;4362432;32;44996;-74
2021/04/01 15:38:16;;;;;;;;;;;21.20;56.30;;;;;;4362722;32;43376;-74
2021/04/01 15:40:43;;;;;;;;;;;21.20;56.30;;;;;;4349339;32;40946;-74
2021/04/01 15:43:11;;;;;;;;;;;21.20;56.10;;;;;;4363048;32;35440;-74
2021/04/01 15:45:38;;;;;;;;;;;21.30;56.10;;;;;;4349466;32;42633;-74
2021/04/01 15:48:06;;;;;;;;;;;21.30;55.90;;;;;;4349142;32;44722;-74
2021/04/01 15:50:33;;;;;;;;;;;21.30;55.80;;;;;;4363092;32;36172;-74
2021/04/01 15:53:00;;;;;;;;;;;21.30;55.70;;;;;;4336819;32;41834;-74
2021/04/01 15:55:29;;;;;;;;;;;21.40;55.70;;;;;;4362970;32;33261;-74
2021/04/01 15:57:58;;;;;;;;;;;21.40;55.60;;;;;;4362162;32;41742;-74
2021/04/01 16:00:25;;;;;;;;;;;21.40;55.60;;;;;;4362588;32;42896;-74
2021/04/01 16:02:52;;;;;;;;;;;21.40;55.50;;;;;;4368095;27;44994;-77
2021/04/01 16:05:21;;;;;;;;;;;21.40;55.30;;;;;;4347695;33;43803;-77
2021/04/01 16:07:48;;;;;;;;;;;21.40;55.20;;;;;;4334294;33;39685;-77
2021/04/01 16:10:18;;;;;;;;;;;21.40;55.10;;;;;;4348577;33;20069;-77
2021/04/01 16:12:53;;;;;;;;;;;21.40;54.90;;;;;;4334802;33;20222;-78
2021/04/01 16:15:20;;;;;;;;;;;21.40;54.90;;;;;;4334525;33;44066;-78
2021/04/01 16:17:52;;;;;;;;;;;21.40;54.70;;;;;;4348425;33;20068;-78
2021/04/01 16:20:24;;;;;;;;;;;21.40;54.60;;;;;;4334007;33;43906;-77
2021/04/01 16:22:53;;;;;;;;;;;21.40;54.50;;;;;;4347812;33;33662;-78
2021/04/01 16:25:25;;;;;;;;;;;21.40;54.40;;;;;;4347842;33;20013;-77
2021/04/01 16:27:55;;;;;;;;;;;21.40;54.30;;;;;;4321571;33;41095;-77
2021/04/01 16:30:26;;;;;;;;;;;21.40;54.20;;;;;;4347745;33;34477;-77
2021/04/01 16:32:56;;;;;;;;;;;21.40;54.10;;;;;;4334287;33;40071;-77
2021/04/01 16:35:26;;;;;;;;;;;21.40;53.80;;;;;;4347462;33;43893;-78
2021/04/01 16:37:56;;;;;;;;;;;21.40;53.70;;;;;;4333684;33;43444;-78
2021/04/01 16:40:28;;;;;;;;;;;21.40;53.60;;;;;;4333640;33;41311;-77